createdAt,value
2019-01-09T00:02:55.376Z,152.80
2019-01-09T00:05:51.713Z,153.37
2019-01-09T00:08:47.628Z,151.97
2019-01-09T00:11:44.081Z,151.27
2019-01-09T00:14:43.792Z,151.47
2019-01-09T00:17:40.019Z,148.30
2019-01-09T00:20:38.080Z,147.63
2019-01-09T00:23:33.833Z,150.27
2019-01-09T00:26:29.960Z,146.37
2019-01-09T00:29:44.512Z,145.00
2019-01-09T00:32:41.966Z,143.50
2019-01-09T00:35:38.817Z,144.30
2019-01-09T00:38:35.439Z,143.20
2019-01-09T00:41:32.821Z,142.47
2019-01-09T00:44:31.553Z,141.03
2019-01-09T00:47:27.825Z,140.77
2019-01-09T00:50:27.252Z,142.70
2019-01-09T00:53:24.064Z,140.43
2019-01-09T00:56:22.960Z,139.07
2019-01-09T00:59:17.270Z,145.75
2019-01-09T01:02:58.453Z,154.47
2019-01-09T01:06:53.650Z,160.60
2019-01-09T01:10:32.808Z,161.57
2019-01-09T01:14:04.391Z,167.17
2019-01-09T01:17:44.575Z,157.07
2019-01-09T01:21:07.689Z,160.60
2019-01-09T01:24:43.248Z,163.90
2019-01-09T01:28:02.143Z,178.63
2019-01-09T01:31:23.117Z,177.60
2019-01-09T01:34:37.427Z,181.53
2019-01-09T01:37:53.319Z,184.97
2019-01-09T01:41:39.863Z,192.70
2019-01-09T01:45:10.955Z,196.97
2019-01-09T01:48:32.772Z,215.73
2019-01-09T01:51:56.639Z,223.93
2019-01-09T01:55:26.696Z,230.40
2019-01-09T01:58:59.104Z,239.67
2019-01-09T02:02:39.886Z,238.93
2019-01-09T02:06:19.261Z,250.00
2019-01-09T02:09:52.057Z,247.07
2019-01-09T02:13:11.390Z,243.88
2019-01-09T02:16:26.414Z,239.10
2019-01-09T02:19:53.359Z,247.87
2019-01-09T02:23:31.153Z,248.10
2019-01-09T02:27:28.147Z,248.60
2019-01-09T02:31:14.825Z,251.42
2019-01-09T02:34:11.408Z,238.63
2019-01-09T02:37:08.752Z,240.73
2019-01-09T02:40:07.211Z,243.80
2019-01-09T02:43:03.522Z,233.65
2019-01-09T02:46:00.198Z,219.97
2019-01-09T02:48:56.761Z,215.27
2019-01-09T02:51:53.240Z,219.93
2019-01-09T02:54:49.762Z,213.50
2019-01-09T02:57:56.282Z,213.43
2019-01-09T03:00:43.582Z,205.23
2019-01-09T03:03:40.431Z,206.93
2019-01-09T03:06:36.766Z,210.03
2019-01-09T03:09:33.124Z,206.20
2019-01-09T03:12:30.374Z,205.77
2019-01-09T03:15:27.140Z,215.77
2019-01-09T03:18:24.054Z,203.53
2019-01-09T03:21:22.382Z,186.70
2019-01-09T03:24:18.938Z,191.95
2019-01-09T03:27:15.307Z,198.20
2019-01-09T03:30:11.713Z,190.43
2019-01-09T03:33:08.288Z,200.05
2019-01-09T03:36:05.232Z,189.53
2019-01-09T03:39:01.160Z,190.53
2019-01-09T03:42:01.228Z,193.43
2019-01-09T03:44:58.442Z,187.43
2019-01-09T03:48:03.691Z,182.63
2019-01-09T03:50:59.503Z,182.37
2019-01-09T03:53:56.451Z,174.82
2019-01-09T03:56:52.870Z,179.67
2019-01-09T03:59:49.091Z,184.17
2019-01-09T04:02:48.420Z,186.10
2019-01-09T04:05:45.257Z,181.28
2019-01-09T04:08:42.009Z,181.22
2019-01-09T04:11:39.569Z,176.75
2019-01-09T04:14:40.711Z,176.02
2019-01-09T04:17:37.454Z,183.45
2019-01-09T04:20:34.208Z,183.40
2019-01-09T04:23:30.948Z,197.22
2019-01-09T04:26:27.385Z,196.15
2019-01-09T04:29:23.815Z,205.12
2019-01-09T04:32:20.785Z,205.15
2019-01-09T04:35:17.813Z,221.22
2019-01-09T04:38:14.055Z,223.22
2019-01-09T04:41:13.350Z,229.75
2019-01-09T04:44:12.968Z,228.35
2019-01-09T04:47:09.206Z,220.63
2019-01-09T04:50:05.944Z,215.47
2019-01-09T04:53:07.832Z,209.72
2019-01-09T04:56:04.135Z,206.70
2019-01-09T04:59:00.579Z,198.00
2019-01-09T05:01:56.915Z,202.30
2019-01-09T05:04:56.009Z,191.40
2019-01-09T05:07:56.251Z,183.07
2019-01-09T05:10:53.286Z,176.87
2019-01-09T05:13:58.334Z,173.30
2019-01-09T05:16:59.249Z,138.60
2019-01-09T05:20:16.470Z,140.62
2019-01-09T05:27:00.880Z,124.75
2019-01-09T05:29:58.793Z,119.75
2019-01-09T05:33:06.557Z,103.90
2019-01-09T05:36:10.078Z,113.10
2019-01-09T05:42:45.043Z,113.90
2019-01-09T05:45:48.374Z,118.50
2019-01-09T05:48:47.663Z,111.85
2019-01-09T05:51:47.269Z,115.77
2019-01-09T05:54:45.536Z,115.22
2019-01-09T05:58:03.833Z,134.12
2019-01-09T06:01:12.457Z,147.35
2019-01-09T06:04:14.575Z,131.67
2019-01-09T06:07:18.346Z,131.18
2019-01-09T06:10:15.499Z,124.72
2019-01-09T06:17:51.918Z,120.92
2019-01-09T06:21:46.996Z,123.55
2019-01-09T06:35:11.246Z,123.70
2019-01-09T06:47:11.637Z,109.05
2019-01-09T06:49:50.089Z,112.55
2019-01-09T06:53:00.915Z,100.97
2019-01-09T06:55:59.325Z,97.80
2019-01-09T06:58:55.867Z,93.82
2019-01-09T07:01:55.886Z,101.20
2019-01-09T07:04:59.517Z,97.15
2019-01-09T07:08:02.700Z,87.53
2019-01-09T07:22:42.899Z,75.22
2019-01-09T07:26:20.404Z,73.92
2019-01-09T07:30:06.847Z,74.00
2019-01-09T07:33:10.641Z,75.62
2019-01-09T07:36:10.495Z,82.53
2019-01-09T07:39:09.327Z,83.10
2019-01-09T07:46:07.922Z,85.05
2019-01-09T07:52:38.566Z,81.95
2019-01-09T07:56:03.687Z,86.05
2019-01-09T07:59:42.029Z,86.78
2019-01-09T08:09:59.512Z,94.28
2019-01-09T08:26:02.672Z,92.40
2019-01-09T08:49:07.200Z,104.63
2019-01-09T08:55:55.074Z,105.70
2019-01-09T08:58:58.380Z,100.40
2019-01-09T09:01:55.376Z,107.78
2019-01-09T09:04:57.795Z,105.05
2019-01-09T09:07:59.663Z,102.15
2019-01-09T09:11:15.455Z,104.35
2019-01-09T09:14:31.790Z,104.97
2019-01-09T09:17:31.999Z,104.27
2019-01-09T09:20:29.243Z,105.35
2019-01-09T09:23:28.539Z,102.67
2019-01-09T09:26:28.158Z,104.70
2019-01-09T09:29:27.709Z,101.00
2019-01-09T09:32:29.932Z,99.72
2019-01-09T09:35:35.874Z,101.62
2019-01-09T09:38:36.337Z,105.25
2019-01-09T09:41:33.139Z,102.97
2019-01-09T09:44:31.527Z,102.10
2019-01-09T09:47:31.256Z,99.65
2019-01-09T09:50:39.710Z,99.50
2019-01-09T09:53:41.231Z,101.27
2019-01-09T09:56:52.863Z,101.18
2019-01-09T09:59:52.315Z,98.25
2019-01-09T10:03:05.778Z,94.75
2019-01-09T10:05:52.458Z,98.70
2019-01-09T10:08:54.313Z,98.82
2019-01-09T10:12:00.617Z,97.00
2019-01-09T10:15:04.315Z,98.52
2019-01-09T10:18:04.906Z,95.07
2019-01-09T10:21:41.836Z,95.75
2019-01-09T10:24:53.188Z,94.25
2019-01-09T10:28:00.187Z,96.45
2019-01-09T10:31:19.783Z,92.37
2019-01-09T10:34:44.904Z,94.83
2019-01-09T10:37:48.690Z,92.60
2019-01-09T11:28:50.549Z,71.95
2019-01-09T11:31:49.627Z,68.70
2019-01-09T11:34:45.641Z,70.57
2019-01-09T11:37:42.101Z,65.15
2019-01-09T11:40:38.462Z,63.17
2019-01-09T11:43:35.765Z,70.90
2019-01-09T11:46:37.501Z,72.10
2019-01-09T11:49:34.092Z,66.42
2019-01-09T11:52:37.656Z,69.05
2019-01-09T11:55:44.833Z,65.25
2019-01-09T11:58:45.424Z,67.95
2019-01-09T12:01:41.650Z,72.17
2019-01-09T12:04:53.365Z,80.57
2019-01-09T12:07:50.322Z,73.40
2019-01-09T12:10:46.541Z,71.35
2019-01-09T12:13:55.152Z,69.87
2019-01-09T12:16:49.636Z,74.87
2019-01-09T12:19:47.088Z,74.82
2019-01-09T12:23:16.425Z,79.37
2019-01-09T12:26:21.344Z,76.15
2019-01-09T12:29:18.391Z,77.50
2019-01-09T12:32:19.203Z,79.37
2019-01-09T12:35:18.635Z,76.17
2019-01-09T12:38:16.315Z,77.78
2019-01-09T12:41:12.437Z,77.75
2019-01-09T12:44:09.167Z,80.90
2019-01-09T12:47:11.164Z,78.57
2019-01-09T12:50:11.488Z,79.45
2019-01-09T12:53:08.813Z,80.85
2019-01-09T12:56:05.202Z,77.30
2019-01-09T12:59:01.776Z,71.72
2019-01-09T13:01:58.262Z,70.52
2019-01-09T13:04:54.561Z,71.33
2019-01-09T13:07:51.416Z,72.85
2019-01-09T13:10:48.063Z,71.37
2019-01-09T13:13:47.614Z,71.37
2019-01-09T13:16:55.555Z,71.57
2019-01-09T13:19:46.013Z,69.42
2019-01-09T13:22:43.221Z,69.55
2019-01-09T13:25:40.508Z,67.32
2019-01-09T13:28:48.916Z,64.35
2019-01-09T13:31:59.495Z,61.45
2019-01-09T13:34:59.084Z,63.73
2019-01-09T13:37:56.031Z,66.47
2019-01-09T13:40:52.680Z,67.08
2019-01-09T13:43:52.274Z,77.12
2019-01-09T13:46:49.840Z,91.32
2019-01-09T13:49:46.900Z,109.50
2019-01-09T13:52:44.172Z,104.72
2019-01-09T13:55:40.886Z,103.20
2019-01-09T13:58:37.526Z,102.10
2019-01-09T14:01:34.308Z,103.70
2019-01-09T14:04:34.841Z,103.72
2019-01-09T14:07:31.958Z,102.67
2019-01-09T14:10:30.977Z,101.60
2019-01-09T14:13:27.793Z,96.00
2019-01-09T14:16:24.156Z,95.45
2019-01-09T14:19:20.675Z,93.55
2019-01-09T14:22:20.385Z,93.60
2019-01-09T14:25:23.176Z,93.20
2019-01-09T14:28:19.799Z,94.32
2019-01-09T14:31:16.250Z,97.12
2019-01-09T14:34:12.218Z,98.12
2019-01-09T14:37:07.970Z,96.32
2019-01-09T14:40:04.126Z,101.02
2019-01-09T14:43:00.461Z,105.00
2019-01-09T14:45:56.692Z,107.37
2019-01-09T14:48:52.698Z,120.10
2019-01-09T14:51:49.139Z,110.22
2019-01-09T14:54:45.103Z,109.27
2019-01-09T14:57:41.192Z,106.10
2019-01-09T15:00:37.951Z,113.83
2019-01-09T15:03:34.711Z,122.45
2019-01-09T15:06:30.619Z,126.58
2019-01-09T15:09:26.430Z,127.58
2019-01-09T15:12:23.186Z,122.35
2019-01-09T15:15:22.472Z,119.37
2019-01-09T15:18:18.519Z,115.95
2019-01-09T15:21:14.637Z,114.42
2019-01-09T15:24:10.883Z,115.32
2019-01-09T15:27:07.626Z,118.60
2019-01-09T15:30:03.957Z,116.85
2019-01-09T15:33:00.708Z,116.93
2019-01-09T15:35:57.438Z,137.47
2019-01-09T15:38:53.527Z,143.80
2019-01-09T15:41:52.671Z,161.22
2019-01-09T15:44:48.799Z,144.75
2019-01-09T15:47:44.927Z,155.30
2019-01-09T15:50:52.738Z,146.50
2019-01-09T15:53:49.067Z,137.12
2019-01-09T15:56:49.084Z,138.62
2019-01-09T15:59:45.836Z,138.43
2019-01-09T16:02:41.838Z,138.00
2019-01-09T16:05:38.294Z,145.40
2019-01-09T16:08:37.607Z,143.65
2019-01-09T16:11:34.157Z,167.82
2019-01-09T16:14:30.884Z,222.22
2019-01-09T16:17:27.005Z,221.93
2019-01-09T16:20:24.104Z,195.57
2019-01-09T16:23:20.399Z,175.70
2019-01-09T16:26:17.223Z,164.75
2019-01-09T16:29:13.995Z,164.15
2019-01-09T16:32:11.239Z,165.47
2019-01-09T16:35:08.783Z,162.47
2019-01-09T16:38:05.033Z,166.00
2019-01-09T16:41:01.012Z,162.68
2019-01-09T16:43:56.752Z,161.57
2019-01-09T16:46:53.110Z,158.57
2019-01-09T16:49:49.351Z,171.30
2019-01-09T16:52:45.305Z,195.35
2019-01-09T16:55:50.751Z,189.13
2019-01-09T16:58:46.544Z,183.03
2019-01-09T17:01:42.926Z,173.20
2019-01-09T17:04:42.933Z,171.15
2019-01-09T17:07:38.898Z,169.35
2019-01-09T17:10:35.976Z,172.80
2019-01-09T17:13:36.451Z,169.97
2019-01-09T17:16:29.130Z,165.80
2019-01-09T17:19:25.698Z,168.05
2019-01-09T17:22:21.720Z,162.62
2019-01-09T17:25:18.670Z,169.20
2019-01-09T17:28:15.410Z,170.53
2019-01-09T17:31:12.055Z,181.60
2019-01-09T17:34:12.354Z,192.18
2019-01-09T17:37:05.232Z,207.62
2019-01-09T17:40:01.972Z,207.67
2019-01-09T17:42:58.329Z,202.43
2019-01-09T17:45:54.041Z,203.00
2019-01-09T17:48:50.270Z,201.00
2019-01-09T17:51:48.728Z,212.75
2019-01-09T17:54:44.671Z,213.72
2019-01-09T17:57:43.358Z,209.50
2019-01-09T18:00:41.843Z,208.80
2019-01-09T18:03:37.739Z,208.43
2019-01-09T18:06:34.502Z,204.97
2019-01-09T18:09:30.638Z,210.20
2019-01-09T18:12:37.557Z,200.72
2019-01-09T18:15:34.162Z,202.25
2019-01-09T18:18:30.699Z,199.20
2019-01-09T18:21:28.162Z,192.87
2019-01-09T18:24:24.904Z,192.10
2019-01-09T18:27:21.648Z,190.28
2019-01-09T18:30:33.430Z,189.43
2019-01-09T18:34:01.896Z,190.05
2019-01-09T18:37:24.283Z,195.22
2019-01-09T18:40:59.433Z,189.07
2019-01-09T18:44:19.106Z,187.00
2019-01-09T18:48:12.461Z,190.40
2019-01-09T18:51:34.688Z,186.88
2019-01-09T18:54:31.474Z,185.85
2019-01-09T18:57:31.072Z,181.22
2019-01-09T19:00:26.898Z,181.78
2019-01-09T19:03:23.228Z,177.12
2019-01-09T19:06:20.592Z,181.15
2019-01-09T19:09:17.534Z,177.38
2019-01-09T19:12:14.069Z,185.95
2019-01-09T19:15:11.018Z,187.18
2019-01-09T19:18:07.762Z,196.55
2019-01-09T19:21:05.119Z,203.80
2019-01-09T19:24:04.726Z,224.37
2019-01-09T19:27:00.966Z,216.33
2019-01-09T19:30:01.295Z,213.45
2019-01-09T19:32:57.516Z,218.75
2019-01-09T19:35:54.047Z,220.20
2019-01-09T19:38:50.599Z,214.25
2019-01-09T19:41:50.729Z,212.48
2019-01-09T19:44:43.477Z,212.75
2019-01-09T19:47:40.014Z,215.25
2019-01-09T19:50:42.476Z,212.78
2019-01-09T19:53:37.890Z,212.12
2019-01-09T19:56:34.141Z,208.57
2019-01-09T19:59:30.255Z,198.62
2019-01-09T20:02:35.201Z,187.80
2019-01-09T20:05:31.123Z,200.65
2019-01-09T20:08:27.482Z,201.82
2019-01-09T20:11:26.557Z,199.42
2019-01-09T20:14:23.012Z,196.25
2019-01-09T20:17:19.527Z,199.10
2019-01-09T20:20:18.247Z,196.02
2019-01-09T20:23:21.341Z,197.72
2019-01-09T20:26:14.725Z,209.25
2019-01-09T20:29:11.517Z,212.95
2019-01-09T20:32:08.474Z,224.85
2019-01-09T20:35:05.327Z,226.88
2019-01-09T20:38:01.957Z,231.85
2019-01-09T20:40:58.397Z,235.65
2019-01-09T20:43:54.750Z,232.50
2019-01-09T20:46:56.664Z,221.85
2019-01-09T20:49:53.139Z,219.47
2019-01-09T20:52:52.568Z,201.92
2019-01-09T20:55:52.054Z,207.12
2019-01-09T20:58:48.349Z,199.15
2019-01-09T21:01:47.173Z,188.10
2019-01-09T21:04:46.797Z,183.47
2019-01-09T21:07:39.651Z,176.42
2019-01-09T21:10:36.587Z,164.70
2019-01-09T21:13:32.277Z,168.70
2019-01-09T21:16:28.332Z,157.55
2019-01-09T21:19:26.687Z,154.35
2019-01-09T21:22:23.139Z,142.98
2019-01-09T21:25:19.879Z,140.17
2019-01-09T21:28:16.333Z,140.05
2019-01-09T21:31:12.977Z,138.70
2019-01-09T21:34:09.621Z,140.65
2019-01-09T21:37:05.864Z,139.60
2019-01-09T21:40:02.285Z,139.75
2019-01-09T21:43:01.488Z,138.70
2019-01-09T21:45:57.927Z,138.83
2019-01-09T21:48:57.757Z,142.07
2019-01-09T21:51:51.098Z,141.53
2019-01-09T21:54:47.220Z,140.75
2019-01-09T21:57:43.459Z,140.80
2019-01-09T22:00:40.295Z,141.85
2019-01-09T22:03:36.538Z,140.97
2019-01-09T22:06:32.874Z,144.95
2019-01-09T22:09:29.195Z,144.23
2019-01-09T22:12:25.787Z,143.80
2019-01-09T22:15:24.437Z,147.13
2019-01-09T22:18:23.224Z,143.13
2019-01-09T22:21:19.447Z,140.22
2019-01-09T22:24:15.482Z,139.05
2019-01-09T22:27:11.410Z,141.95
2019-01-09T22:30:08.145Z,137.37
2019-01-09T22:33:04.487Z,127.53
2019-01-09T22:36:00.616Z,129.78
2019-01-09T22:38:56.436Z,134.03
2019-01-09T22:41:52.667Z,141.53
2019-01-09T22:44:50.655Z,142.05
2019-01-09T22:47:46.960Z,140.50
2019-01-09T22:50:43.407Z,139.35
2019-01-09T22:53:40.976Z,139.18
2019-01-09T22:56:37.822Z,142.15
2019-01-09T22:59:34.260Z,142.18
2019-01-09T23:02:34.884Z,141.97
2019-01-09T23:05:31.334Z,138.83
2019-01-09T23:08:30.836Z,136.87
2019-01-09T23:11:27.069Z,141.43
2019-01-09T23:14:23.463Z,138.37
2019-01-09T23:17:19.839Z,136.83
2019-01-09T23:20:20.477Z,133.00
2019-01-09T23:23:16.442Z,129.53
2019-01-09T23:26:13.154Z,134.73
2019-01-09T23:29:09.281Z,130.37
2019-01-09T23:32:05.793Z,132.77
2019-01-09T23:35:01.836Z,131.82
2019-01-09T23:37:58.379Z,127.27
2019-01-09T23:40:54.713Z,125.87
2019-01-09T23:43:51.044Z,127.17
2019-01-09T23:46:46.867Z,123.40
2019-01-09T23:49:42.799Z,120.65
2019-01-09T23:52:39.946Z,118.13
2019-01-09T23:55:36.176Z,116.43
2019-01-09T23:58:35.164Z,119.17
